Time;durP1;ratioP1;P1;durP2;ratioP2;P2;SDS_P1;SDS_P2;PMS_P1;PMS_P2;Temp;Humidity;BMP_temperature;BMP_pressure;BME280_temperature;BME280_humidity;BME280_pressure;Samples;Min_cycle;Max_cycle;Signal;HPM_P1;HPM_P2
2022/04/13 00:00:29;;;;;;;6.00;2.43;;;12.90;99.90;;;;;;5075867;28;20195;-78
2022/04/13 00:02:55;;;;;;;5.07;2.60;;;12.80;99.90;;;;;;5057902;28;20304;-78
2022/04/13 00:05:21;;;;;;;4.50;2.47;;;12.80;99.90;;;;;;5075870;28;20179;-78
2022/04/13 00:07:46;;;;;;;4.60;2.73;;;12.70;99.90;;;;;;5075426;28;20248;-78
2022/04/13 00:10:12;;;;;;;3.30;2.33;;;12.70;65.30;;;;;;5076063;28;20176;-78
2022/04/13 00:12:38;;;;;;;6.27;2.43;;;12.70;33.40;;;;;;5057708;28;20249;-78
2022/04/13 00:15:05;;;;;;;4.00;2.47;;;12.70;3.00;;;;;;5075715;28;20211;-78
2022/04/13 00:17:31;;;;;;;6.37;2.70;;;12.70;81.80;;;;;;5057439;28;20269;-78
2022/04/13 00:19:58;;;;;;;3.10;2.50;;;12.60;99.90;;;;;;5075791;28;20171;-78
2022/04/13 00:22:24;;;;;;;4.37;2.70;;;12.60;1.00;;;;;;5075481;28;20206;-78
2022/04/13 00:24:49;;;;;;;6.27;2.73;;;12.50;1.00;;;;;;5076186;28;20178;-78
2022/04/13 00:27:15;;;;;;;5.47;2.40;;;12.60;1.00;;;;;;5057867;28;20179;-78
2022/04/13 00:29:40;;;;;;;4.10;2.33;;;12.60;96.20;;;;;;5057232;28;20179;-78
2022/04/13 00:32:07;;;;;;;8.20;2.87;;;12.50;57.50;;;;;;5074882;28;20191;-78
2022/04/13 00:34:32;;;;;;;7.03;2.90;;;12.50;99.90;;;;;;5075500;28;20223;-79
2022/04/13 00:36:58;;;;;;;5.20;2.67;;;12.50;99.90;;;;;;5075564;28;20179;-78
2022/04/13 00:39:25;;;;;;;5.00;2.50;;;12.40;99.90;;;;;;5075934;28;20167;-78
2022/04/13 00:42:05;;;;;;;5.40;3.00;;;12.40;99.90;;;;;;5075984;28;20203;-78
2022/04/13 00:44:31;;;;;;;4.10;2.40;;;12.40;1.00;;;;;;5076918;28;20163;-78
2022/04/13 00:46:57;;;;;;;8.53;3.00;;;12.40;99.90;;;;;;5060313;28;20185;-80
2022/04/13 00:49:25;;;;;;;4.47;2.53;;;12.30;99.90;;;;;;5074959;28;20171;-77
2022/04/13 00:51:51;;;;;;;6.03;2.77;;;12.30;99.90;;;;;;5074016;28;20638;-78
2022/04/13 00:54:18;;;;;;;4.07;2.33;;;12.30;99.90;;;;;;5074227;28;20179;-77
2022/04/13 00:56:47;;;;;;;6.33;2.50;;;12.30;1.00;;;;;;5074076;28;20179;-77
2022/04/13 00:59:14;;;;;;;5.13;2.73;;;12.20;1.00;;;;;;5075871;28;20194;-79
2022/04/13 01:01:47;;;;;;;8.53;3.10;;;12.20;1.00;;;;;;5076990;28;20198;-78
2022/04/13 01:04:13;;;;;;;5.03;2.30;;;12.20;1.00;;;;;;5075333;28;20191;-79
2022/04/13 01:06:40;;;;;;;3.20;2.30;;;12.20;1.00;;;;;;5072156;28;20558;-77
2022/04/13 01:09:06;;;;;;;9.00;2.90;;;12.10;1.00;;;;;;5055922;28;20232;-77
2022/04/13 01:11:32;;;;;;;5.50;2.50;;;12.10;1.00;;;;;;5073829;28;20191;-78
2022/04/13 01:13:58;;;;;;;8.10;2.50;;;12.00;1.00;;;;;;5073239;28;20561;-77
2022/04/13 01:16:24;;;;;;;4.27;2.57;;;12.00;1.00;;;;;;5055330;28;20597;-77
2022/04/13 01:18:51;;;;;;;5.83;2.73;;;12.00;1.00;;;;;;5073214;28;20232;-77
2022/04/13 01:21:19;;;;;;;5.73;2.80;;;11.90;99.90;;;;;;5054270;28;20202;-78
2022/04/13 01:23:46;;;;;;;3.40;2.40;;;11.90;99.90;;;;;;5056086;28;20229;-78
2022/04/13 01:26:12;;;;;;;4.13;2.50;;;11.90;99.90;;;;;;5055482;28;20232;-78
2022/04/13 01:28:38;;;;;;;5.00;2.37;;;11.90;99.90;;;;;;5073478;28;20190;-77
2022/04/13 01:31:05;;;;;;;5.57;2.43;;;11.90;99.90;;;;;;5055550;28;20270;-77
2022/04/13 01:33:31;;;;;;;4.00;2.37;;;11.90;99.90;;;;;;5055385;28;20187;-77
2022/04/13 01:36:01;;;;;;;5.43;2.90;;;11.80;99.90;;;;;;5073713;28;20194;-77
2022/04/13 01:38:28;;;;;;;5.47;2.73;;;11.80;99.90;;;;;;5073549;28;20217;-78
2022/04/13 01:40:55;;;;;;;3.70;2.43;;;11.80;99.90;;;;;;5055414;28;20191;-77
2022/04/13 01:43:20;;;;;;;7.70;2.83;;;11.80;99.90;;;;;;5075175;28;20215;-78
2022/04/13 01:45:46;;;;;;;4.37;2.60;;;11.80;99.90;;;;;;5057712;28;20650;-78
2022/04/13 01:48:12;;;;;;;4.07;2.50;;;11.70;97.70;;;;;;5061236;28;20667;-78
2022/04/13 01:50:37;;;;;;;5.33;2.77;;;11.70;99.90;;;;;;5057228;28;20191;-79
2022/04/13 01:53:03;;;;;;;3.87;2.63;;;11.70;62.70;;;;;;5078074;28;20248;-78
2022/04/13 01:55:28;;;;;;;8.77;2.93;;;11.60;99.90;;;;;;5080273;28;20536;-78
2022/04/13 01:57:54;;;;;;;4.50;2.80;;;11.60;99.90;;;;;;5069360;28;20207;-78
2022/04/13 02:00:19;;;;;;;9.60;2.70;;;11.50;99.90;;;;;;5083988;28;20218;-78
2022/04/13 02:02:46;;;;;;;6.80;2.53;;;11.50;99.90;;;;;;5080298;28;20305;-78
2022/04/13 02:05:11;;;;;;;3.77;2.60;;;11.50;99.90;;;;;;5076373;28;20282;-77
2022/04/13 02:07:37;;;;;;;5.07;2.87;;;11.50;99.90;;;;;;5056602;28;20629;-77
2022/04/13 02:10:03;;;;;;;5.77;2.63;;;11.40;99.90;;;;;;5056506;28;20179;-77
2022/04/13 02:12:28;;;;;;;6.00;2.60;;;11.40;99.90;;;;;;5073597;28;20209;-78
2022/04/13 02:14:54;;;;;;;5.83;2.70;;;11.30;99.90;;;;;;5073058;28;20175;-77
2022/04/13 02:17:21;;;;;;;8.10;2.97;;;11.40;99.90;;;;;;5072956;28;20549;-77
2022/04/13 02:19:46;;;;;;;5.17;2.77;;;11.30;99.90;;;;;;5072794;28;20527;-77
2022/04/13 02:22:12;;;;;;;3.73;2.37;;;11.20;99.90;;;;;;5055978;28;20252;-78
2022/04/13 02:24:39;;;;;;;5.37;2.73;;;11.20;99.90;;;;;;5058805;28;20189;-79
2022/04/13 02:27:07;;;;;;;7.77;3.00;;;11.10;99.90;;;;;;5058811;28;20189;-78
2022/04/13 02:29:34;;;;;;;5.67;2.50;;;11.10;99.90;;;;;;5077828;28;20245;-78
2022/04/13 02:32:00;;;;;;;5.33;2.73;;;11.10;99.90;;;;;;5079487;28;20187;-78
2022/04/13 02:34:26;;;;;;;3.23;2.40;;;11.00;99.90;;;;;;5079694;28;20183;-78
2022/04/13 02:36:51;;;;;;;3.20;2.40;;;10.90;99.90;;;;;;5082712;28;20562;-78
2022/04/13 02:39:17;;;;;;;8.80;2.80;;;10.90;99.90;;;;;;5078678;28;20175;-78
2022/04/13 02:41:42;;;;;;;8.33;3.23;;;10.90;99.90;;;;;;5078158;28;20697;-78
2022/04/13 02:44:08;;;;;;;5.47;2.50;;;10.90;99.90;;;;;;5085154;28;20201;-78
2022/04/13 02:46:33;;;;;;;7.43;3.00;;;10.80;99.90;;;;;;5082799;28;20182;-78
2022/04/13 02:48:59;;;;;;;4.53;2.50;;;10.80;99.90;;;;;;5081267;28;20204;-78
2022/04/13 02:51:25;;;;;;;5.17;2.80;;;10.80;99.90;;;;;;5060547;28;20686;-77
2022/04/13 02:53:50;;;;;;;4.40;2.50;;;10.80;99.90;;;;;;5077087;28;20175;-77
2022/04/13 02:56:17;;;;;;;3.67;2.70;;;10.70;99.90;;;;;;5076949;28;20171;-77
2022/04/13 02:58:42;;;;;;;4.73;3.00;;;10.70;99.90;;;;;;5059218;28;20541;-78
2022/04/13 03:01:08;;;;;;;7.97;3.13;;;10.70;99.90;;;;;;5077244;28;20205;-78
2022/04/13 03:03:34;;;;;;;4.17;2.57;;;10.70;99.90;;;;;;5077301;28;20220;-77
2022/04/13 03:06:00;;;;;;;6.10;2.73;;;10.80;99.90;;;;;;5077066;28;20250;-77
2022/04/13 03:08:25;;;;;;;5.67;2.73;;;10.80;99.90;;;;;;5077302;28;20206;-77
2022/04/13 03:10:51;;;;;;;4.63;2.50;;;10.80;99.90;;;;;;5058083;28;20241;-77
2022/04/13 03:13:17;;;;;;;6.47;3.20;;;10.80;99.90;;;;;;5059645;28;20187;-77
2022/04/13 03:15:42;;;;;;;6.57;2.60;;;10.80;99.90;;;;;;5076975;28;20187;-78
2022/04/13 03:18:08;;;;;;;5.20;3.17;;;10.80;21.40;;;;;;5077089;28;20206;-78
2022/04/13 03:20:34;;;;;;;4.37;2.67;;;10.80;1.00;;;;;;5058795;28;20218;-78
2022/04/13 03:23:01;;;;;;;7.07;2.87;;;10.80;52.70;;;;;;5077020;28;20198;-78
2022/04/13 03:25:27;;;;;;;5.93;2.73;;;10.70;99.90;;;;;;5058773;28;20175;-78
2022/04/13 03:27:52;;;;;;;8.87;2.90;;;10.70;99.90;;;;;;5076924;28;20190;-78
2022/04/13 03:30:18;;;;;;;7.23;3.20;;;10.60;99.90;;;;;;5058472;28;20198;-78
2022/04/13 03:32:44;;;;;;;5.00;2.53;;;10.60;99.90;;;;;;5058544;28;20275;-77
2022/04/13 03:35:11;;;;;;;4.73;2.67;;;10.60;99.90;;;;;;5076780;28;20181;-78
2022/04/13 03:37:38;;;;;;;6.80;2.70;;;10.60;99.90;;;;;;5058634;28;20312;-78
2022/04/13 03:40:04;;;;;;;6.63;2.80;;;10.50;99.90;;;;;;5076963;28;20202;-78
2022/04/13 03:42:35;;;;;;;8.23;2.63;;;10.50;99.90;;;;;;5073940;28;20566;-77
2022/04/13 03:45:05;;;;;;;6.53;2.67;;;10.50;99.90;;;;;;5057872;28;20182;-77
2022/04/13 03:47:31;;;;;;;7.00;2.90;;;10.50;99.90;;;;;;5075990;28;20248;-77
2022/04/13 03:49:57;;;;;;;5.27;2.77;;;10.50;99.90;;;;;;5075931;28;20646;-77
2022/04/13 03:52:22;;;;;;;7.37;2.90;;;10.50;99.90;;;;;;5058007;28;20741;-77
2022/04/13 03:54:48;;;;;;;4.57;2.40;;;10.50;99.90;;;;;;5076400;28;20207;-78
2022/04/13 03:57:13;;;;;;;6.13;3.20;;;10.50;99.90;;;;;;5076072;28;20183;-78
2022/04/13 03:59:39;;;;;;;5.97;2.50;;;10.50;99.90;;;;;;5076597;28;20259;-78
2022/04/13 04:02:05;;;;;;;5.07;2.43;;;10.40;99.90;;;;;;5057944;28;20677;-77
2022/04/13 04:04:30;;;;;;;5.47;2.70;;;10.50;99.90;;;;;;5075592;28;20175;-76
2022/04/13 04:06:56;;;;;;;5.83;2.70;;;10.40;99.90;;;;;;5076463;28;20228;-78
2022/04/13 04:09:21;;;;;;;6.80;2.60;;;10.40;99.90;;;;;;5058216;28;20183;-78
2022/04/13 04:11:47;;;;;;;4.50;2.77;;;10.50;99.90;;;;;;5057453;28;20297;-78
2022/04/13 04:14:12;;;;;;;6.13;2.53;;;10.50;99.90;;;;;;5075653;28;20179;-77
2022/04/13 04:16:38;;;;;;;5.67;3.00;;;10.50;99.90;;;;;;5075244;28;20197;-77
2022/04/13 04:19:03;;;;;;;10.13;2.93;;;10.40;99.90;;;;;;5075701;28;20253;-78
2022/04/13 04:21:29;;;;;;;9.20;3.13;;;10.50;99.90;;;;;;5057965;28;20206;-78
2022/04/13 04:23:54;;;;;;;4.03;2.60;;;10.40;99.90;;;;;;5075151;28;20229;-78
2022/04/13 04:26:20;;;;;;;4.37;2.77;;;10.40;99.90;;;;;;5075107;28;20263;-78
2022/04/13 04:28:45;;;;;;;5.33;2.83;;;10.40;99.90;;;;;;5057121;28;20228;-77
2022/04/13 04:31:11;;;;;;;6.90;3.30;;;10.40;99.90;;;;;;5075133;28;20198;-78
2022/04/13 04:33:36;;;;;;;6.20;2.50;;;10.50;99.90;;;;;;5057611;28;20186;-77
2022/04/13 04:36:02;;;;;;;3.67;2.70;;;10.50;99.90;;;;;;5057284;28;20581;-77
2022/04/13 04:38:32;;;;;;;5.63;2.67;;;10.50;99.90;;;;;;5057096;28;20281;-78
2022/04/13 04:40:58;;;;;;;5.13;2.90;;;10.50;99.90;;;;;;5075232;28;20198;-77
2022/04/13 04:43:23;;;;;;;4.73;2.57;;;10.50;99.90;;;;;;5075113;28;20565;-78
2022/04/13 04:45:49;;;;;;;4.57;2.70;;;10.60;99.90;;;;;;5074982;28;20316;-78
2022/04/13 04:48:14;;;;;;;3.87;2.20;;;10.60;99.90;;;;;;5075112;28;20643;-78
2022/04/13 04:50:40;;;;;;;3.60;2.97;;;10.50;99.90;;;;;;5074574;28;20642;-78
2022/04/13 04:53:05;;;;;;;3.03;2.30;;;10.50;99.90;;;;;;5101558;22;20260;-77
2022/04/13 04:55:31;;;;;;;4.93;2.37;;;10.50;99.90;;;;;;5097583;28;20171;-79
2022/04/13 04:57:57;;;;;;;4.53;2.63;;;10.50;99.90;;;;;;5096065;28;20183;-77
2022/04/13 05:00:23;;;;;;;6.63;2.53;;;10.50;99.90;;;;;;5096669;28;20572;-78
2022/04/13 05:02:50;;;;;;;5.60;2.10;;;10.60;99.90;;;;;;5096416;28;20211;-77
2022/04/13 05:05:17;;;;;;;3.10;2.23;;;10.60;99.90;;;;;;5097559;28;20166;-78
2022/04/13 05:07:43;;;;;;;5.27;2.40;;;10.60;99.90;;;;;;5097784;28;20174;-77
2022/04/13 05:10:09;;;;;;;6.17;2.60;;;10.60;99.90;;;;;;5097151;28;20178;-77
2022/04/13 05:12:45;;;;;;;4.57;2.30;;;10.60;99.90;;;;;;5102726;28;20210;-77
2022/04/13 05:15:12;;;;;;;5.93;2.30;;;10.60;99.90;;;;;;5088609;28;20189;-78
2022/04/13 05:17:38;;;;;;;4.03;2.70;;;10.60;99.90;;;;;;5089028;28;20621;-77
2022/04/13 05:20:05;;;;;;;4.50;2.33;;;10.60;99.90;;;;;;5088415;28;20195;-78
2022/04/13 05:22:31;;;;;;;3.90;2.63;;;10.60;99.90;;;;;;5080999;28;20217;-77
2022/04/13 05:25:08;;;;;;;4.13;2.57;;;10.60;99.90;;;;;;5096358;28;20561;-78
2022/04/13 05:27:33;;;;;;;3.93;2.60;;;10.60;99.90;;;;;;5097009;28;20170;-78
2022/04/13 05:29:59;;;;;;;8.93;2.80;;;10.60;99.90;;;;;;5097165;28;20189;-78
2022/04/13 05:32:25;;;;;;;4.30;2.37;;;10.60;99.90;;;;;;5096778;28;20198;-78
2022/04/13 05:34:57;;;;;;;6.37;3.20;;;10.70;99.90;;;;;;5078808;28;20240;-77
2022/04/13 05:37:23;;;;;;;4.20;2.93;;;10.60;99.90;;;;;;5079068;28;20175;-77
2022/04/13 05:39:48;;;;;;;4.40;2.70;;;10.60;99.90;;;;;;5097385;28;20185;-77
2022/04/13 05:42:14;;;;;;;2.77;2.50;;;10.70;99.90;;;;;;5079179;28;20588;-78
2022/04/13 05:44:39;;;;;;;7.63;2.27;;;10.70;99.90;;;;;;5079205;28;20193;-77
2022/04/13 05:47:05;;;;;;;6.73;2.80;;;10.70;99.90;;;;;;5079471;28;20193;-77
2022/04/13 05:49:30;;;;;;;3.40;2.50;;;10.70;99.90;;;;;;5097335;28;20178;-77
2022/04/13 05:51:56;;;;;;;7.03;3.03;;;10.70;99.90;;;;;;5079087;28;20221;-77
2022/04/13 05:54:22;;;;;;;5.37;2.87;;;10.70;99.90;;;;;;5098011;28;20186;-77
2022/04/13 05:56:47;;;;;;;8.03;2.97;;;10.80;99.90;;;;;;5079239;28;20237;-77
2022/04/13 05:59:14;;;;;;;6.80;2.87;;;10.80;99.90;;;;;;5096715;28;20186;-77
2022/04/13 06:01:39;;;;;;;5.20;2.47;;;10.90;99.90;;;;;;5078816;28;20689;-77
2022/04/13 06:04:05;;;;;;;6.10;2.67;;;10.90;99.90;;;;;;5078878;28;20216;-77
2022/04/13 06:06:31;;;;;;;8.03;2.70;;;11.00;99.90;;;;;;5098525;28;20174;-76
2022/04/13 06:08:56;;;;;;;10.50;2.60;;;11.00;99.90;;;;;;5101834;28;20665;-77
2022/04/13 06:11:22;;;;;;;5.23;2.50;;;11.10;99.90;;;;;;5101994;28;20179;-77
2022/04/13 06:13:47;;;;;;;5.47;3.00;;;11.10;99.90;;;;;;5101740;28;20689;-77
2022/04/13 06:16:13;;;;;;;6.60;2.77;;;11.20;99.90;;;;;;5101584;28;20269;-76
2022/04/13 06:18:38;;;;;;;6.47;3.13;;;11.30;99.90;;;;;;5101949;28;20235;-76
2022/04/13 06:21:04;;;;;;;6.97;3.40;;;11.30;99.90;;;;;;5101098;28;20319;-77
2022/04/13 06:23:29;;;;;;;8.37;3.80;;;11.40;99.90;;;;;;5101759;28;20673;-76
2022/04/13 06:25:55;;;;;;;8.63;3.77;;;11.50;99.90;;;;;;5083155;28;20182;-76
2022/04/13 06:28:20;;;;;;;6.23;3.87;;;11.60;99.90;;;;;;5083510;28;20257;-77
2022/04/13 06:30:46;;;;;;;6.00;3.03;;;11.70;99.90;;;;;;5099503;28;20222;-76
2022/04/13 06:33:11;;;;;;;8.50;3.87;;;11.80;99.90;;;;;;5100817;28;20198;-77
2022/04/13 06:35:37;;;;;;;8.50;3.90;;;11.90;99.90;;;;;;5083047;28;20190;-76
2022/04/13 06:38:02;;;;;;;8.70;3.50;;;12.00;99.90;;;;;;5101566;28;20178;-77
2022/04/13 06:40:28;;;;;;;10.90;3.63;;;12.00;99.90;;;;;;5101137;28;20186;-77
2022/04/13 06:42:55;;;;;;;10.53;4.60;;;12.10;71.90;;;;;;5101069;28;20202;-76
2022/04/13 06:45:21;;;;;;;10.63;4.20;;;12.20;1.00;;;;;;5083519;28;20186;-77
2022/04/13 06:47:48;;;;;;;7.97;4.80;;;12.30;1.00;;;;;;5100953;28;20222;-76
2022/04/13 06:50:14;;;;;;;10.63;4.17;;;12.40;1.00;;;;;;5101006;28;20175;-77
2022/04/13 06:52:40;;;;;;;9.17;4.10;;;12.50;1.00;;;;;;5082484;28;20287;-77
2022/04/13 06:55:09;;;;;;;14.30;4.33;;;12.60;1.00;;;;;;5081981;28;20194;-77
2022/04/13 06:57:37;;;;;;;20.00;5.07;;;12.70;99.90;;;;;;5100224;28;20183;-77
2022/04/13 07:00:12;;;;;;;9.90;4.80;;;12.90;99.90;;;;;;5100427;28;20174;-77
2022/04/13 07:02:39;;;;;;;16.70;5.43;;;13.00;99.90;;;;;;5082748;28;20214;-77
2022/04/13 07:05:06;;;;;;;18.17;5.50;;;13.10;99.90;;;;;;5082664;28;20246;-77
2022/04/13 07:07:31;;;;;;;18.97;5.70;;;13.20;90.30;;;;;;5101127;28;20181;-77
2022/04/13 07:09:57;;;;;;;18.73;6.57;;;13.20;99.90;;;;;;5100736;28;20569;-77
2022/04/13 07:12:23;;;;;;;16.53;5.73;;;13.30;99.90;;;;;;5082405;28;20225;-77
2022/04/13 07:14:48;;;;;;;13.50;5.97;;;13.40;99.90;;;;;;5082188;28;20642;-77
2022/04/13 07:17:14;;;;;;;11.33;5.13;;;13.40;99.90;;;;;;5100688;28;20637;-77
2022/04/13 07:19:39;;;;;;;17.87;6.07;;;13.50;1.00;;;;;;5081745;28;20246;-77
2022/04/13 07:22:05;;;;;;;15.07;5.33;;;13.50;1.00;;;;;;5082040;28;20206;-77
2022/04/13 07:24:31;;;;;;;14.50;5.97;;;13.60;1.00;;;;;;5082698;28;20637;-77
2022/04/13 07:26:56;;;;;;;13.93;5.63;;;13.70;1.00;;;;;;5101234;28;20186;-77
2022/04/13 07:29:22;;;;;;;11.43;5.73;;;13.70;1.00;;;;;;5100171;28;20224;-77
2022/04/13 07:31:47;;;;;;;19.27;6.60;;;13.80;1.00;;;;;;5100324;28;20546;-77
2022/04/13 07:34:13;;;;;;;12.50;6.10;;;13.80;1.00;;;;;;5082271;28;20186;-77
2022/04/13 07:36:39;;;;;;;18.50;6.63;;;13.90;99.90;;;;;;5100701;28;20714;-77
2022/04/13 07:39:04;;;;;;;17.47;6.53;;;14.00;1.00;;;;;;5098945;28;20186;-77
2022/04/13 07:41:30;;;;;;;16.43;7.70;;;14.10;80.00;;;;;;5082332;28;20202;-77
2022/04/13 07:43:57;;;;;;;15.53;7.57;;;14.10;1.00;;;;;;5082318;28;20230;-77
2022/04/13 07:46:25;;;;;;;13.57;6.90;;;14.30;99.90;;;;;;5100474;28;20166;-77
2022/04/13 07:48:51;;;;;;;20.90;7.43;;;14.40;35.30;;;;;;5081665;28;20213;-77
2022/04/13 07:51:17;;;;;;;21.03;7.20;;;14.50;1.00;;;;;;5082115;28;20197;-76
2022/04/13 07:53:42;;;;;;;19.20;7.23;;;14.50;1.00;;;;;;5100846;28;20178;-77
2022/04/13 07:56:08;;;;;;;13.10;6.77;;;14.60;1.00;;;;;;5082065;28;20210;-77
2022/04/13 07:58:34;;;;;;;15.53;7.13;;;14.60;99.90;;;;;;5098498;28;20182;-77
2022/04/13 08:00:59;;;;;;;14.20;7.20;;;14.70;99.90;;;;;;5100044;28;20293;-77
2022/04/13 08:03:25;;;;;;;19.00;7.07;;;14.70;99.90;;;;;;5100142;28;20240;-77
2022/04/13 08:05:51;;;;;;;17.23;7.47;;;14.80;99.90;;;;;;5099601;28;20175;-77
2022/04/13 08:08:16;;;;;;;14.80;7.77;;;14.90;99.90;;;;;;5100621;28;20265;-77
2022/04/13 08:10:42;;;;;;;18.17;7.83;;;14.90;1.00;;;;;;5081211;28;20197;-77
2022/04/13 08:13:07;;;;;;;18.80;7.57;;;15.00;1.00;;;;;;5081060;28;20699;-77
2022/04/13 08:15:33;;;;;;;17.80;8.13;;;15.10;1.00;;;;;;5099445;28;20178;-77
2022/04/13 08:17:58;;;;;;;18.90;8.10;;;15.20;99.30;;;;;;5081539;28;20186;-77
2022/04/13 08:20:24;;;;;;;18.67;7.53;;;15.40;1.00;;;;;;5099911;28;20225;-77
2022/04/13 08:22:49;;;;;;;18.00;8.07;;;15.50;1.00;;;;;;5081684;28;20569;-77
2022/04/13 08:25:15;;;;;;;17.77;8.37;;;15.60;1.00;;;;;;5081264;28;20189;-77
2022/04/13 08:27:41;;;;;;;21.13;8.10;;;15.70;1.00;;;;;;5099168;28;20225;-77
2022/04/13 08:30:07;;;;;;;16.33;7.80;;;15.70;1.00;;;;;;5098885;28;20177;-77
2022/04/13 08:32:32;;;;;;;15.27;8.27;;;15.90;99.90;;;;;;5080996;28;20285;-77
2022/04/13 08:34:58;;;;;;;19.13;8.23;;;15.90;1.00;;;;;;5080630;28;20205;-77
2022/04/13 08:37:25;;;;;;;18.30;8.73;;;16.00;1.00;;;;;;5097673;28;20631;-76
2022/04/13 08:39:50;;;;;;;24.57;9.50;;;16.20;5.20;;;;;;5098032;28;20205;-76
2022/04/13 08:42:31;;;;;;;16.80;8.37;;;16.20;1.00;;;;;;5080389;28;20198;-76
2022/04/13 08:45:00;;;;;;;20.40;8.03;;;16.30;34.70;;;;;;5095066;28;20178;-78
2022/04/13 08:47:26;;;;;;;20.40;8.30;;;16.30;99.90;;;;;;5060270;28;20185;-79
2022/04/13 08:49:52;;;;;;;25.13;8.53;;;16.40;99.90;;;;;;5096340;28;20178;-77
2022/04/13 08:52:23;;;;;;;20.97;9.70;;;16.50;99.90;;;;;;5077363;28;20764;-78
2022/04/13 08:54:54;;;;;;;20.43;9.13;;;16.60;99.90;;;;;;5085609;28;20186;-79
2022/04/13 08:57:22;;;;;;;20.40;8.93;;;16.60;1.00;;;;;;5095819;28;20250;-78
2022/04/13 09:00:06;;;;;;;27.73;10.23;;;16.70;1.00;;;;;;5077871;28;20230;-77
2022/04/13 09:02:47;;;;;;;20.83;10.57;;;16.80;1.00;;;;;;5084901;28;20281;-78
2022/04/13 09:05:16;;;;;;;25.27;10.80;;;16.90;1.80;;;;;;5084683;28;20255;-78
2022/04/13 09:07:42;;;;;;;25.37;11.70;;;17.00;99.90;;;;;;5072197;28;20180;-78
2022/04/13 09:10:12;;;;;;;22.60;11.27;;;17.20;5.90;;;;;;5056888;28;20206;-77
2022/04/13 09:12:38;;;;;;;27.67;12.13;;;17.20;1.00;;;;;;5057813;28;20202;-78
2022/04/13 09:15:06;;;;;;;24.27;10.17;;;17.20;99.90;;;;;;5056994;28;20233;-79
2022/04/13 09:17:32;;;;;;;19.33;10.13;;;17.40;24.40;;;;;;5093424;28;20197;-77
2022/04/13 09:19:58;;;;;;;21.20;9.83;;;17.40;1.00;;;;;;5074186;28;20186;-77
2022/04/13 09:22:24;;;;;;;20.67;9.27;;;17.40;99.90;;;;;;5095635;28;20233;-77
2022/04/13 09:24:54;;;;;;;19.50;7.50;;;17.50;99.90;;;;;;5095484;28;20232;-77
2022/04/13 09:27:20;;;;;;;20.87;8.40;;;17.50;99.90;;;;;;5068292;28;20669;-79
2022/04/13 09:29:47;;;;;;;21.70;8.50;;;17.50;99.90;;;;;;5092792;28;20174;-77
2022/04/13 09:32:14;;;;;;;23.53;7.80;;;17.50;99.90;;;;;;5058701;28;20294;-78
2022/04/13 09:34:39;;;;;;;19.47;7.33;;;17.60;93.50;;;;;;5107151;28;20552;-78
2022/04/13 09:37:07;;;;;;;15.67;6.97;;;17.60;1.00;;;;;;5093335;28;20196;-79
2022/04/13 09:39:33;;;;;;;18.10;7.30;;;17.80;95.50;;;;;;5070827;28;20597;-78
2022/04/13 09:42:01;;;;;;;15.77;7.13;;;17.80;11.70;;;;;;5059503;28;20201;-79
2022/04/13 09:44:29;;;;;;;17.00;7.30;;;17.80;99.90;;;;;;5058110;28;20207;-79
2022/04/13 09:47:11;;;;;;;19.37;7.40;;;17.90;1.00;;;;;;5085859;28;20190;-78
2022/04/13 09:49:46;;;;;;;20.63;6.80;;;18.00;92.20;;;;;;5094621;28;20154;-78
2022/04/13 09:52:12;;;;;;;14.37;5.97;;;18.10;27.40;;;;;;5077223;28;20218;-77
2022/04/13 09:54:48;;;;;;;16.87;6.13;;;18.10;1.00;;;;;;5078853;28;20551;-78
2022/04/13 09:57:22;;;;;;;9.70;5.10;;;18.20;1.00;;;;;;5097124;28;20249;-78
2022/04/13 09:59:54;;;;;;;12.47;5.33;;;18.30;1.00;;;;;;5096937;28;20182;-78
2022/04/13 10:02:34;;;;;;;11.97;5.23;;;18.20;1.00;;;;;;5078706;28;20617;-78
2022/04/13 10:05:00;;;;;;;12.77;4.63;;;18.20;1.00;;;;;;5077586;28;20186;-77
2022/04/13 10:07:25;;;;;;;9.37;4.43;;;18.30;99.90;;;;;;5095055;28;20181;-78
2022/04/13 10:09:51;;;;;;;10.17;4.77;;;18.30;1.00;;;;;;5097499;28;20174;-78
2022/04/13 10:12:16;;;;;;;10.57;4.53;;;18.40;99.90;;;;;;5097038;28;20587;-78
2022/04/13 10:14:43;;;;;;;10.33;4.40;;;18.50;1.00;;;;;;5097884;28;20174;-78
2022/04/13 10:17:15;;;;;;;11.10;5.60;;;18.60;99.90;;;;;;5097434;28;20166;-78
2022/04/13 10:19:42;;;;;;;11.50;5.83;;;18.70;99.90;;;;;;5098345;28;20158;-79
2022/04/13 10:22:08;;;;;;;16.70;6.70;;;18.70;1.00;;;;;;5078747;28;20204;-79
2022/04/13 10:24:39;;;;;;;10.20;5.40;;;18.80;99.90;;;;;;5078165;28;20218;-78
2022/04/13 10:27:17;;;;;;;13.23;5.53;;;18.80;99.90;;;;;;5078618;28;20627;-78
2022/04/13 10:29:44;;;;;;;10.67;5.03;;;18.90;99.90;;;;;;5078231;28;20661;-78
2022/04/13 10:32:30;;;;;;;13.23;5.57;;;19.00;99.90;;;;;;5095904;28;20229;-78
2022/04/13 10:34:56;;;;;;;11.30;5.47;;;19.20;99.90;;;;;;5077459;28;20213;-78
2022/04/13 10:37:24;;;;;;;14.57;5.63;;;19.20;99.90;;;;;;5078082;28;20186;-78
2022/04/13 10:39:52;;;;;;;15.60;5.33;;;19.30;99.90;;;;;;5077901;28;20178;-78
2022/04/13 10:42:19;;;;;;;14.20;6.37;;;19.30;99.90;;;;;;5095748;28;20201;-78
2022/04/13 10:44:53;;;;;;;16.07;6.07;;;19.30;99.90;;;;;;5079284;28;20178;-78
2022/04/13 10:47:24;;;;;;;15.83;6.07;;;19.40;1.00;;;;;;5096314;28;20705;-79
2022/04/13 10:49:58;;;;;;;10.53;4.60;;;19.40;1.00;;;;;;5078805;28;20572;-79
2022/04/13 10:52:30;;;;;;;11.03;5.00;;;19.50;99.90;;;;;;5086104;22;20233;-95
2022/04/13 10:55:02;;;;;;;13.47;6.50;;;19.90;93.80;;;;;;5084061;28;20215;-96
2022/04/13 10:57:36;;;;;;;14.20;6.03;;;19.50;99.90;;;;;;5080681;28;20187;-95
2022/04/13 11:00:04;;;;;;;16.17;5.40;;;20.10;1.00;;;;;;5064879;28;20148;-94
2022/04/13 11:02:52;;;;;;;11.67;4.83;;;19.90;1.00;;;;;;5063621;28;20188;-95
2022/04/13 11:05:18;;;;;;;12.73;4.93;;;19.90;99.90;;;;;;5051639;22;1054202;-78
2022/04/13 11:07:44;;;;;;;16.50;4.87;;;19.80;99.90;;;;;;5081322;28;20241;-79
2022/04/13 11:10:19;;;;;;;11.77;5.40;;;19.70;99.90;;;;;;5061835;28;20217;-77
2022/04/13 11:12:46;;;;;;;8.50;4.17;;;19.90;1.00;;;;;;5079262;28;20191;-78
2022/04/13 11:15:11;;;;;;;15.33;5.73;;;19.80;99.90;;;;;;5062015;28;20544;-78
2022/04/13 11:17:42;;;;;;;16.20;5.47;;;19.70;69.60;;;;;;5061613;28;20186;-78
2022/04/13 11:20:24;;;;;;;17.43;6.93;;;19.60;85.20;;;;;;5080182;28;20175;-78
2022/04/13 11:23:13;;;;;;;14.27;5.20;;;19.60;99.90;;;;;;5061539;28;20210;-78
2022/04/13 11:25:48;;;;;;;10.53;4.20;;;19.70;99.90;;;;;;5080383;28;20156;-78
2022/04/13 11:28:29;;;;;;;13.43;5.43;;;19.80;99.90;;;;;;5062270;28;20622;-78
2022/04/13 11:31:02;;;;;;;15.03;5.17;;;19.90;1.00;;;;;;5062871;28;20229;-78
2022/04/13 11:33:52;;;;;;;8.47;4.00;;;19.80;99.90;;;;;;5079666;28;20203;-78
2022/04/13 11:36:19;;;;;;;12.70;4.43;;;19.90;1.00;;;;;;5062408;28;20187;-78
2022/04/13 11:38:49;;;;;;;10.43;4.80;;;19.90;52.60;;;;;;5062780;28;20187;-78
2022/04/13 11:41:15;;;;;;;13.17;5.50;;;19.90;99.90;;;;;;5062354;28;20187;-78
2022/04/13 11:43:41;;;;;;;14.13;4.80;;;19.90;99.90;;;;;;5062256;28;20215;-78
2022/04/13 11:46:09;;;;;;;14.40;5.80;;;19.90;99.90;;;;;;5081253;28;20175;-78
2022/04/13 11:48:35;;;;;;;11.43;6.07;;;19.90;99.90;;;;;;5081207;28;20174;-79
2022/04/13 11:51:24;;;;;;;13.40;6.73;;;20.00;1.00;;;;;;5061788;28;20206;-78
2022/04/13 11:53:54;;;;;;;11.80;6.10;;;19.80;98.00;;;;;;5061934;28;20631;-78
2022/04/13 11:56:34;;;;;;;15.03;4.93;;;19.90;1.00;;;;;;5079793;28;20217;-78
2022/04/13 11:58:59;;;;;;;8.57;4.63;;;19.90;99.90;;;;;;5080350;28;20265;-78
2022/04/13 12:01:26;;;;;;;12.83;6.27;;;19.90;54.60;;;;;;5069397;28;20187;-78
2022/04/13 12:03:51;;;;;;;14.13;5.77;;;19.90;99.90;;;;;;5083246;28;20203;-78
2022/04/13 12:06:22;;;;;;;10.97;5.67;;;19.80;1.00;;;;;;5080108;28;20163;-78
2022/04/13 12:08:52;;;;;;;9.70;5.17;;;19.80;99.90;;;;;;5063767;28;20541;-78
2022/04/13 12:11:21;;;;;;;11.63;5.43;;;19.90;99.90;;;;;;5081406;28;20247;-78
2022/04/13 12:13:51;;;;;;;12.70;5.30;;;19.90;99.90;;;;;;5080640;28;20259;-78
2022/04/13 12:16:28;;;;;;;11.70;5.87;;;20.00;99.90;;;;;;5062343;28;20190;-79
2022/04/13 12:19:00;;;;;;;9.87;4.37;;;20.00;99.90;;;;;;5077467;28;20167;-78
2022/04/13 12:21:29;;;;;;;8.20;3.77;;;20.00;1.00;;;;;;5077050;28;20171;-78
2022/04/13 12:23:55;;;;;;;7.43;3.70;;;20.10;1.00;;;;;;5077720;28;20301;-78
2022/04/13 12:26:41;;;;;;;6.70;3.50;;;20.30;1.00;;;;;;5059692;28;20672;-78
2022/04/13 12:29:16;;;;;;;9.70;4.07;;;20.40;1.00;;;;;;5077541;28;20170;-78
2022/04/13 12:31:46;;;;;;;6.97;3.20;;;20.60;1.00;;;;;;5077024;28;20185;-78
2022/04/13 12:34:18;;;;;;;6.87;3.67;;;20.50;99.90;;;;;;5077068;28;20183;-78
2022/04/13 12:36:51;;;;;;;7.93;3.93;;;20.50;99.90;;;;;;5081866;28;20164;-77
2022/04/13 12:39:17;;;;;;;7.43;3.33;;;20.40;99.90;;;;;;5065918;28;20183;-78
2022/04/13 12:41:42;;;;;;;7.33;3.40;;;20.40;1.00;;;;;;5070444;28;20189;-78
2022/04/13 12:44:08;;;;;;;7.80;3.93;;;20.40;1.00;;;;;;5087824;28;20234;-77
2022/04/13 12:46:34;;;;;;;11.17;4.43;;;20.30;1.00;;;;;;5091125;28;20230;-78